createdAt,value
2022-10-25T00:02:23.592Z,6.82
2022-10-25T00:05:13.888Z,3.70
2022-10-25T00:07:59.342Z,7.68
2022-10-25T00:10:45.169Z,7.13
2022-10-25T00:13:30.977Z,6.93
2022-10-25T00:16:18.028Z,5.88
2022-10-25T00:19:04.859Z,5.72
2022-10-25T00:21:50.382Z,4.88
2022-10-25T00:24:35.908Z,6.05
2022-10-25T00:27:21.493Z,7.30
2022-10-25T00:30:07.699Z,4.25
2022-10-25T00:32:53.567Z,5.13
2022-10-25T00:35:38.976Z,4.00
2022-10-25T00:38:24.518Z,4.38
2022-10-25T00:41:11.191Z,4.85
2022-10-25T00:44:35.518Z,4.30
2022-10-25T00:47:20.939Z,5.45
2022-10-25T00:50:22.964Z,7.15
2022-10-25T00:53:14.961Z,4.70
2022-10-25T00:56:16.744Z,6.68
2022-10-25T00:59:06.855Z,7.65
2022-10-25T01:01:56.383Z,4.68
2022-10-25T01:04:43.471Z,6.82
2022-10-25T01:07:29.087Z,3.78
2022-10-25T01:10:15.827Z,3.78
2022-10-25T01:13:03.024Z,4.05
2022-10-25T01:15:58.466Z,4.85
2022-10-25T01:19:05.322Z,5.38
2022-10-25T01:22:04.242Z,5.78
2022-10-25T01:25:06.391Z,4.05
2022-10-25T01:28:16.528Z,5.25
2022-10-25T01:31:08.379Z,4.07
2022-10-25T01:34:07.206Z,6.63
2022-10-25T01:37:01.654Z,3.88
2022-10-25T01:40:05.546Z,8.52
2022-10-25T01:43:01.241Z,5.70
2022-10-25T01:46:00.927Z,3.20
2022-10-25T01:48:50.372Z,4.70
2022-10-25T01:51:37.074Z,3.45
2022-10-25T01:54:26.031Z,3.08
2022-10-25T01:57:46.963Z,2.83
2022-10-25T02:00:47.754Z,4.63
2022-10-25T02:03:57.407Z,2.88
2022-10-25T02:07:16.038Z,5.70
2022-10-25T02:10:18.877Z,3.63
2022-10-25T02:13:13.233Z,3.80
2022-10-25T02:16:04.970Z,5.68
2022-10-25T02:19:03.882Z,4.63
2022-10-25T02:21:51.696Z,3.03
2022-10-25T02:24:38.932Z,4.88
2022-10-25T02:27:26.040Z,3.28
2022-10-25T02:30:11.784Z,5.40
2022-10-25T02:32:57.335Z,3.38
2022-10-25T02:35:42.787Z,3.65
2022-10-25T02:38:28.562Z,5.22
2022-10-25T02:41:14.172Z,4.57
2022-10-25T02:43:59.979Z,3.42
2022-10-25T02:46:45.759Z,3.78
2022-10-25T02:49:31.176Z,5.15
2022-10-25T02:52:16.704Z,3.70
2022-10-25T02:55:02.359Z,5.15
2022-10-25T02:57:47.806Z,3.30
2022-10-25T03:00:33.664Z,3.35
2022-10-25T03:03:18.948Z,2.78
2022-10-25T03:06:05.368Z,3.75
2022-10-25T03:08:50.672Z,3.65
2022-10-25T03:11:36.325Z,2.72
2022-10-25T03:14:22.108Z,3.88
2022-10-25T03:17:08.222Z,4.38
2022-10-25T03:19:53.995Z,7.75
2022-10-25T03:22:39.584Z,6.28
2022-10-25T03:25:24.940Z,4.97
2022-10-25T03:28:10.519Z,5.55
2022-10-25T03:30:57.029Z,4.88
2022-10-25T03:33:42.567Z,4.90
2022-10-25T03:36:27.929Z,4.25
2022-10-25T03:39:13.523Z,4.93
2022-10-25T03:41:58.963Z,3.75
2022-10-25T03:44:44.526Z,3.30
2022-10-25T03:47:30.282Z,3.08
2022-10-25T03:50:15.799Z,4.97
2022-10-25T03:53:02.678Z,4.97
2022-10-25T03:55:48.288Z,6.28
2022-10-25T03:58:33.647Z,4.25
2022-10-25T04:01:19.566Z,4.93
2022-10-25T04:04:05.035Z,6.25
2022-10-25T04:06:50.491Z,7.25
2022-10-25T04:09:36.210Z,5.15
2022-10-25T04:12:21.806Z,8.35
2022-10-25T04:15:08.201Z,6.07
2022-10-25T04:17:53.937Z,6.22
2022-10-25T04:20:39.524Z,3.75
2022-10-25T04:23:25.429Z,5.38
2022-10-25T04:26:10.847Z,5.47
2022-10-25T04:28:56.694Z,7.00
2022-10-25T04:31:42.465Z,6.25
2022-10-25T04:34:28.030Z,6.00
2022-10-25T04:37:13.784Z,4.25
2022-10-25T04:39:59.279Z,5.65
2022-10-25T04:42:44.977Z,9.50
2022-10-25T04:45:30.357Z,4.65
2022-10-25T04:48:16.406Z,8.18
2022-10-25T04:51:02.055Z,4.35
2022-10-25T04:53:47.394Z,5.50
2022-10-25T04:56:33.028Z,4.32
2022-10-25T04:59:18.238Z,6.70
2022-10-25T05:02:04.264Z,3.20
2022-10-25T05:04:49.917Z,3.75
2022-10-25T05:07:35.420Z,7.45
2022-10-25T05:10:21.119Z,3.75
2022-10-25T05:13:06.489Z,4.50
2022-10-25T05:15:58.583Z,4.90
2022-10-25T05:18:47.036Z,4.65
2022-10-25T05:21:32.794Z,7.30
2022-10-25T05:24:18.693Z,16.13
2022-10-25T05:27:04.560Z,6.50
2022-10-25T05:29:50.410Z,5.82
2022-10-25T05:32:36.293Z,6.75
2022-10-25T05:35:22.004Z,4.55
2022-10-25T05:38:07.733Z,6.03
2022-10-25T05:43:43.941Z,4.43
2022-10-25T05:46:29.886Z,3.95
2022-10-25T05:49:15.542Z,5.15
2022-10-25T05:52:01.327Z,7.10
2022-10-25T05:54:47.024Z,6.30
2022-10-25T05:57:32.982Z,6.50
2022-10-25T06:00:19.052Z,7.25
2022-10-25T06:03:04.308Z,7.32
2022-10-25T06:05:50.297Z,6.00
2022-10-25T06:08:36.068Z,6.80
2022-10-25T06:11:21.444Z,6.63
2022-10-25T06:14:09.642Z,5.95
2022-10-25T06:16:55.327Z,7.93
2022-10-25T06:19:41.202Z,6.78
2022-10-25T06:22:26.640Z,3.38
2022-10-25T06:25:12.023Z,4.88
2022-10-25T06:27:57.788Z,4.35
2022-10-25T06:30:43.417Z,6.50
2022-10-25T06:33:29.795Z,5.03
2022-10-25T06:36:22.948Z,5.00
2022-10-25T06:39:08.465Z,4.75
2022-10-25T06:41:53.908Z,7.88
2022-10-25T06:44:39.775Z,4.15
2022-10-25T06:47:25.362Z,5.57
2022-10-25T06:50:11.034Z,4.85
2022-10-25T06:52:58.162Z,10.52
2022-10-25T06:55:45.037Z,4.80
2022-10-25T06:58:31.543Z,8.00
2022-10-25T07:01:18.692Z,4.10
2022-10-25T07:04:04.108Z,7.50
2022-10-25T07:06:52.750Z,5.18
2022-10-25T07:09:41.430Z,3.53
2022-10-25T07:12:28.795Z,6.40
2022-10-25T07:15:14.512Z,5.82
2022-10-25T07:18:00.299Z,6.65
2022-10-25T07:20:48.509Z,10.15
2022-10-25T07:23:34.572Z,6.88
2022-10-25T07:26:28.702Z,6.82
2022-10-25T07:29:14.704Z,5.40
2022-10-25T07:32:00.362Z,5.70
2022-10-25T07:34:45.857Z,2.90
2022-10-25T07:37:31.321Z,4.30
2022-10-25T07:40:17.007Z,5.63
2022-10-25T07:43:02.511Z,6.22
2022-10-25T07:45:50.670Z,5.55
2022-10-25T07:48:36.641Z,7.05
2022-10-25T07:51:22.037Z,4.03
2022-10-25T07:54:07.900Z,9.15
2022-10-25T07:56:53.810Z,6.72
2022-10-25T07:59:39.693Z,5.82
2022-10-25T08:02:26.340Z,6.13
2022-10-25T08:05:11.833Z,5.97
2022-10-25T08:07:57.503Z,5.55
2022-10-25T08:10:44.100Z,4.13
2022-10-25T08:13:30.175Z,3.55
2022-10-25T08:16:15.939Z,4.72
2022-10-25T08:19:01.516Z,4.75
2022-10-25T08:21:47.041Z,4.75
2022-10-25T08:24:33.387Z,4.63
2022-10-25T08:27:19.256Z,8.70
2022-10-25T08:30:05.235Z,6.78
2022-10-25T08:32:51.556Z,3.00
2022-10-25T08:35:36.895Z,3.47
2022-10-25T08:38:22.571Z,4.18
2022-10-25T08:41:15.908Z,3.45
2022-10-25T08:44:14.744Z,4.78
2022-10-25T08:47:07.789Z,6.13
2022-10-25T08:50:02.045Z,6.80
2022-10-25T08:52:54.637Z,4.57
2022-10-25T08:56:04.915Z,6.00
2022-10-25T08:58:56.009Z,5.32
2022-10-25T09:01:47.518Z,5.88
2022-10-25T09:04:34.209Z,5.40
2022-10-25T09:07:29.046Z,7.55
2022-10-25T09:10:20.707Z,4.00
2022-10-25T09:16:49.779Z,4.72
2022-10-25T09:19:44.702Z,6.90
2022-10-25T09:22:34.046Z,4.55
2022-10-25T09:25:22.627Z,5.13
2022-10-25T09:28:25.166Z,6.25
2022-10-25T09:31:15.516Z,5.20
2022-10-25T09:34:04.452Z,6.00
2022-10-25T09:37:04.391Z,6.45
2022-10-25T09:39:56.509Z,4.90
2022-10-25T09:43:07.373Z,9.95
2022-10-25T09:46:04.815Z,6.00
2022-10-25T09:49:02.896Z,2.88
2022-10-25T09:52:14.604Z,5.10
2022-10-25T09:55:12.390Z,3.88
2022-10-25T09:57:58.051Z,10.73
2022-10-25T10:00:43.366Z,3.45
2022-10-25T10:03:31.676Z,4.63
2022-10-25T10:06:28.696Z,5.10
2022-10-25T10:09:16.464Z,4.32
2022-10-25T10:12:05.644Z,7.03
2022-10-25T10:14:57.512Z,4.60
2022-10-25T10:17:42.884Z,7.28
2022-10-25T10:20:29.185Z,4.82
2022-10-25T10:23:15.010Z,5.28
2022-10-25T10:26:28.113Z,5.97
2022-10-25T10:29:17.478Z,4.97
2022-10-25T10:32:22.392Z,4.35
2022-10-25T10:35:25.451Z,6.37
2022-10-25T10:38:20.096Z,10.82
2022-10-25T10:41:15.935Z,5.90
2022-10-25T10:44:14.590Z,7.15
2022-10-25T10:47:19.941Z,4.35
2022-10-25T10:53:00.599Z,4.10
2022-10-25T10:55:46.168Z,4.32
2022-10-25T10:58:36.493Z,3.53
2022-10-25T11:01:36.373Z,2.88
2022-10-25T11:04:24.120Z,5.10
2022-10-25T11:07:31.069Z,4.43
2022-10-25T11:10:16.343Z,6.00
2022-10-25T11:13:23.070Z,5.55
2022-10-25T11:16:49.346Z,4.07
2022-10-25T11:19:49.776Z,5.72
2022-10-25T11:22:43.606Z,4.63
2022-10-25T11:25:44.504Z,3.55
2022-10-25T11:28:45.740Z,4.05
2022-10-25T11:31:50.181Z,3.63
2022-10-25T11:34:52.462Z,3.03
2022-10-25T11:37:49.153Z,3.33
2022-10-25T11:41:05.570Z,4.68
2022-10-25T11:44:26.556Z,5.30
2022-10-25T11:47:31.069Z,3.88
2022-10-25T11:50:43.200Z,3.80
2022-10-25T11:53:56.378Z,3.10
2022-10-25T11:56:48.356Z,2.63
2022-10-25T11:59:49.352Z,2.33
2022-10-25T12:02:44.107Z,3.97
2022-10-25T12:05:56.268Z,3.15
2022-10-25T12:09:12.487Z,1.88
2022-10-25T12:12:03.274Z,3.20
2022-10-25T12:14:53.608Z,1.80
2022-10-25T12:17:39.576Z,2.22
2022-10-25T12:20:28.523Z,2.47
2022-10-25T12:23:21.301Z,2.72
2022-10-25T12:26:30.914Z,2.33
2022-10-25T12:29:30.721Z,4.13
2022-10-25T12:32:31.380Z,2.35
2022-10-25T12:35:28.725Z,2.58
2022-10-25T12:38:35.129Z,1.33
2022-10-25T12:41:27.643Z,2.55
2022-10-25T12:44:41.804Z,2.83
2022-10-25T12:47:36.911Z,3.58
2022-10-25T12:53:32.898Z,3.20
2022-10-25T12:56:56.048Z,2.92
2022-10-25T13:00:25.103Z,3.42
2022-10-25T13:03:45.760Z,1.77
2022-10-25T13:06:48.451Z,3.33
2022-10-25T13:09:37.189Z,2.78
2022-10-25T13:12:30.747Z,2.42
2022-10-25T13:15:19.714Z,1.70
2022-10-25T13:18:24.349Z,2.40
2022-10-25T13:21:15.397Z,4.72
2022-10-25T13:24:02.516Z,3.80
2022-10-25T13:27:13.950Z,2.28
2022-10-25T13:30:04.332Z,5.25
2022-10-25T13:33:23.928Z,2.95
2022-10-25T13:36:09.579Z,3.00
2022-10-25T13:39:05.414Z,4.90
2022-10-25T13:41:51.244Z,2.38
2022-10-25T13:44:46.854Z,1.42
2022-10-25T13:47:39.710Z,2.70
2022-10-25T13:50:30.491Z,3.22
2022-10-25T13:53:18.479Z,3.55
2022-10-25T13:56:23.445Z,3.30
2022-10-25T13:59:57.705Z,5.10
2022-10-25T14:03:12.659Z,3.65
2022-10-25T14:05:57.985Z,2.47
2022-10-25T14:09:14.044Z,1.88
2022-10-25T14:12:02.287Z,2.63
2022-10-25T14:15:02.258Z,2.72
2022-10-25T14:17:48.056Z,1.48
2022-10-25T14:20:35.928Z,1.63
2022-10-25T14:23:27.488Z,1.17
2022-10-25T14:26:15.296Z,3.85
2022-10-25T14:29:14.997Z,1.70
2022-10-25T14:32:00.464Z,2.58
2022-10-25T14:34:50.927Z,2.78
2022-10-25T14:37:45.660Z,2.83
2022-10-25T14:40:32.066Z,2.08
2022-10-25T14:43:28.837Z,1.95
2022-10-25T14:46:17.139Z,2.35
2022-10-25T14:49:02.887Z,3.47
2022-10-25T14:51:51.435Z,3.22
2022-10-25T14:54:37.633Z,2.28
2022-10-25T14:57:26.167Z,2.70
2022-10-25T15:00:21.253Z,2.47
2022-10-25T15:05:53.478Z,3.20
2022-10-25T15:08:41.385Z,2.10
2022-10-25T15:11:26.771Z,2.22
2022-10-25T15:14:20.628Z,1.92
2022-10-25T15:17:19.062Z,2.20
2022-10-25T15:20:14.300Z,3.80
2022-10-25T15:23:15.129Z,1.10
2022-10-25T15:26:23.280Z,2.53
2022-10-25T15:29:08.751Z,1.92
2022-10-25T15:31:54.492Z,2.33
2022-10-25T15:34:41.393Z,5.50
2022-10-25T15:37:29.171Z,2.22
2022-10-25T15:40:16.485Z,2.50
2022-10-25T15:43:02.532Z,17.17
2022-10-25T15:45:48.532Z,8.00
2022-10-25T15:48:34.192Z,7.60
2022-10-25T15:51:19.871Z,5.90
2022-10-25T15:54:05.192Z,5.25
2022-10-25T15:56:51.961Z,4.68
2022-10-25T15:59:37.437Z,4.63
2022-10-25T16:02:31.852Z,3.33
2022-10-25T16:05:24.733Z,1.55
2022-10-25T16:08:10.235Z,2.47
2022-10-25T16:10:56.751Z,2.55
2022-10-25T16:13:43.514Z,2.15
2022-10-25T16:16:44.856Z,2.97
2022-10-25T16:19:31.726Z,2.53
2022-10-25T16:22:17.303Z,2.10
2022-10-25T16:25:02.967Z,2.65
2022-10-25T16:27:49.194Z,3.40
2022-10-25T16:30:36.544Z,3.03
2022-10-25T16:33:23.827Z,2.60
2022-10-25T16:36:11.074Z,4.03
2022-10-25T16:38:56.388Z,2.00
2022-10-25T16:41:44.417Z,1.75
2022-10-25T16:44:29.875Z,2.78
2022-10-25T16:47:15.195Z,2.83
2022-10-25T16:50:01.000Z,3.25
2022-10-25T16:52:46.761Z,4.25
2022-10-25T16:55:33.074Z,3.70
2022-10-25T16:58:18.537Z,2.60
2022-10-25T17:01:15.656Z,4.20
2022-10-25T17:04:03.289Z,3.05
2022-10-25T17:06:49.340Z,2.75
2022-10-25T17:09:35.126Z,3.60
2022-10-25T17:12:20.893Z,5.15
2022-10-25T17:15:06.859Z,4.10
2022-10-25T17:17:52.419Z,3.53
2022-10-25T17:20:38.209Z,5.75
2022-10-25T17:23:23.622Z,5.18
2022-10-25T17:26:11.567Z,3.25
2022-10-25T17:29:01.071Z,7.63
2022-10-25T17:31:46.806Z,8.77
2022-10-25T17:34:32.230Z,6.72
2022-10-25T17:37:17.648Z,2.65
2022-10-25T17:40:03.641Z,2.55
2022-10-25T17:42:49.505Z,6.25
2022-10-25T17:45:35.011Z,3.60
2022-10-25T17:48:20.409Z,4.78
2022-10-25T17:51:08.787Z,2.50
2022-10-25T17:53:55.170Z,4.72
2022-10-25T17:56:40.595Z,4.72
2022-10-25T17:59:27.738Z,4.30
2022-10-25T18:02:13.453Z,5.30
2022-10-25T18:05:19.392Z,3.95
2022-10-25T18:08:04.370Z,3.10
2022-10-25T18:10:50.133Z,6.68
2022-10-25T18:13:37.166Z,3.00
2022-10-25T18:16:25.941Z,7.95
2022-10-25T18:19:14.474Z,5.32
2022-10-25T18:22:01.888Z,6.03
2022-10-25T18:24:48.321Z,5.18
2022-10-25T18:27:34.039Z,7.10
2022-10-25T18:30:19.253Z,6.40
2022-10-25T18:33:09.163Z,13.40
2022-10-25T18:36:03.379Z,13.40
2022-10-25T18:38:49.530Z,12.57
2022-10-25T18:41:35.415Z,9.50
2022-10-25T18:44:20.882Z,8.40
2022-10-25T18:47:07.357Z,8.07
2022-10-25T18:49:52.661Z,11.38
2022-10-25T18:52:38.328Z,8.60
2022-10-25T18:55:26.654Z,9.10
2022-10-25T18:58:13.437Z,7.13
2022-10-25T19:01:10.206Z,32.10
2022-10-25T19:03:57.208Z,24.23
2022-10-25T19:06:44.523Z,15.00
2022-10-25T19:09:36.558Z,16.90
2022-10-25T19:12:22.072Z,13.23
2022-10-25T19:15:08.168Z,14.25
2022-10-25T19:17:53.627Z,10.50
2022-10-25T19:20:41.874Z,10.55
2022-10-25T19:23:31.212Z,9.55
2022-10-25T19:26:20.035Z,9.60
2022-10-25T19:29:05.648Z,9.48
2022-10-25T19:31:52.129Z,12.48
2022-10-25T19:34:37.980Z,11.05
2022-10-25T19:37:23.728Z,10.38
2022-10-25T19:40:10.591Z,9.18
2022-10-25T19:42:56.404Z,9.13
2022-10-25T19:45:43.501Z,9.55
2022-10-25T19:48:29.435Z,7.63
2022-10-25T19:51:18.375Z,11.32
2022-10-25T19:54:04.632Z,10.38
2022-10-25T19:56:51.232Z,7.75
2022-10-25T19:59:36.821Z,7.78
2022-10-25T20:02:22.222Z,7.22
2022-10-25T20:05:08.304Z,11.00
2022-10-25T20:07:53.929Z,16.95
2022-10-25T20:10:39.744Z,12.02
2022-10-25T20:13:25.083Z,12.07
2022-10-25T20:16:10.654Z,10.57
2022-10-25T20:18:58.626Z,12.55
2022-10-25T20:21:44.566Z,11.70
2022-10-25T20:24:30.551Z,12.98
2022-10-25T20:27:16.134Z,10.68
2022-10-25T20:30:01.634Z,10.60
2022-10-25T20:32:46.847Z,9.23
2022-10-25T20:35:36.480Z,8.90
2022-10-25T20:38:22.007Z,13.27
2022-10-25T20:41:28.260Z,9.63
2022-10-25T20:44:14.770Z,9.90
2022-10-25T20:47:00.367Z,10.48
2022-10-25T20:49:45.931Z,8.70
2022-10-25T20:52:31.490Z,8.68
2022-10-25T20:55:19.170Z,9.32
2022-10-25T20:58:05.463Z,8.07
2022-10-25T21:00:54.702Z,14.68
2022-10-25T21:03:40.510Z,10.90
2022-10-25T21:06:26.231Z,9.40
2022-10-25T21:09:11.648Z,7.70
2022-10-25T21:11:57.264Z,8.63
2022-10-25T21:14:43.304Z,7.00
2022-10-25T21:17:28.938Z,7.53
2022-10-25T21:20:14.631Z,7.20
2022-10-25T21:23:00.284Z,7.22
2022-10-25T21:25:46.191Z,8.05
2022-10-25T21:28:33.733Z,7.68
2022-10-25T21:31:19.222Z,7.65
2022-10-25T21:34:04.907Z,7.70
2022-10-25T21:36:50.030Z,9.80
2022-10-25T21:39:35.703Z,10.90
2022-10-25T21:42:21.529Z,13.18
2022-10-25T21:45:07.444Z,12.15
2022-10-25T21:47:53.003Z,8.73
2022-10-25T21:50:38.275Z,7.40
2022-10-25T21:53:24.156Z,8.07
2022-10-25T21:56:14.540Z,4.63
2022-10-25T21:59:00.630Z,9.80
2022-10-25T22:01:46.149Z,9.70
2022-10-25T22:04:31.590Z,10.90
2022-10-25T22:07:17.097Z,6.50
2022-10-25T22:10:02.779Z,8.93
2022-10-25T22:12:48.174Z,6.45
2022-10-25T22:15:33.696Z,5.97
2022-10-25T22:18:18.981Z,10.55
2022-10-25T22:21:08.301Z,8.65
2022-10-25T22:23:53.806Z,6.97
2022-10-25T22:26:42.080Z,3.58
2022-10-25T22:29:27.678Z,4.45
2022-10-25T22:32:13.071Z,5.80
2022-10-25T22:34:58.314Z,4.57
2022-10-25T22:37:44.155Z,7.82
2022-10-25T22:40:29.717Z,6.32
2022-10-25T22:43:15.402Z,5.13
2022-10-25T22:46:02.216Z,7.75
2022-10-25T22:48:47.919Z,6.68
2022-10-25T22:51:34.185Z,8.32
2022-10-25T22:54:19.732Z,7.78
2022-10-25T22:57:05.403Z,5.97
2022-10-25T22:59:51.057Z,5.50
2022-10-25T23:02:36.555Z,8.60
2022-10-25T23:05:22.011Z,6.78
2022-10-25T23:08:07.688Z,8.60
2022-10-25T23:11:08.173Z,7.80
2022-10-25T23:13:53.937Z,8.65
2022-10-25T23:16:39.699Z,7.95
2022-10-25T23:19:25.191Z,6.85
2022-10-25T23:22:10.766Z,5.15
2022-10-25T23:24:56.174Z,6.30
2022-10-25T23:27:41.978Z,5.95
2022-10-25T23:30:33.497Z,5.82
2022-10-25T23:33:19.257Z,7.82
2022-10-25T23:36:13.245Z,5.88
2022-10-25T23:38:58.484Z,6.78
2022-10-25T23:41:44.233Z,6.85
2022-10-25T23:44:29.592Z,8.65
2022-10-25T23:47:14.850Z,7.75
2022-10-25T23:50:00.668Z,9.30
2022-10-25T23:52:46.420Z,6.50
2022-10-25T23:55:32.437Z,11.35
2022-10-25T23:58:18.271Z,7.97
